Time;durP1;ratioP1;P1;durP2;ratioP2;P2;SDS_P1;SDS_P2;PMS_P1;PMS_P2;Temp;Humidity;BMP_temperature;BMP_pressure;BME280_temperature;BME280_humidity;BME280_pressure;Samples;Min_cycle;Max_cycle;Signal;HPM_P1;HPM_P2
2021/06/26 00:01:34;;;;;;;3.45;2.65;;;;;;;;;;5079161;28;20039;-58
2021/06/26 00:04:00;;;;;;;4.32;2.92;;;;;;;;;;5078795;28;20155;-57
2021/06/26 00:06:25;;;;;;;7.70;2.10;;;;;;;;;;5078233;28;20016;-57
2021/06/26 00:08:52;;;;;;;4.40;2.65;;;;;;;;;;5076350;28;20056;-57
2021/06/26 00:11:18;;;;;;;4.80;2.63;;;;;;;;;;5074774;28;20495;-57
2021/06/26 00:13:43;;;;;;;3.80;2.53;;;;;;;;;;5076887;28;20022;-57
2021/06/26 00:16:09;;;;;;;4.30;3.53;;;;;;;;;;5073700;28;20328;-57
2021/06/26 00:18:34;;;;;;;6.55;2.95;;;;;;;;;;5078258;28;20027;-57
2021/06/26 00:20:59;;;;;;;2.42;2.00;;;;;;;;;;5076595;28;20066;-57
2021/06/26 00:23:24;;;;;;;5.30;2.35;;;;;;;;;;5077744;28;20867;-57
2021/06/26 00:25:50;;;;;;;2.90;2.33;;;;;;;;;;5077902;28;20035;-57
2021/06/26 00:28:15;;;;;;;13.40;2.95;;;;;;;;;;5071967;28;20059;-57
2021/06/26 00:30:41;;;;;;;3.25;2.28;;;;;;;;;;5070883;28;20024;-57
2021/06/26 00:33:06;;;;;;;2.55;1.90;;;;;;;;;;5077637;28;20111;-57
2021/06/26 00:35:31;;;;;;;2.80;1.58;;;;;;;;;;5076064;28;20037;-57
2021/06/26 00:37:57;;;;;;;7.68;2.58;;;;;;;;;;5072632;28;20099;-57
2021/06/26 00:40:22;;;;;;;3.97;1.80;;;;;;;;;;5075207;28;20803;-57
2021/06/26 00:42:47;;;;;;;4.55;2.38;;;;;;;;;;5076916;28;20031;-57
2021/06/26 00:45:14;;;;;;;2.95;2.08;;;;;;;;;;5075314;28;20771;-57
2021/06/26 00:47:39;;;;;;;6.72;2.33;;;;;;;;;;5078008;28;20026;-57
2021/06/26 00:50:06;;;;;;;7.28;2.13;;;;;;;;;;5075405;28;20696;-57
2021/06/26 00:52:31;;;;;;;5.18;2.45;;;;;;;;;;5077791;28;20022;-57
2021/06/26 00:54:57;;;;;;;3.33;2.20;;;;;;;;;;5075138;28;20019;-57
2021/06/26 00:57:22;;;;;;;5.65;3.42;;;;;;;;;;5079290;28;20045;-57
2021/06/26 00:59:48;;;;;;;4.72;2.08;;;;;;;;;;5075758;28;20039;-56
2021/06/26 01:02:13;;;;;;;3.42;2.20;;;;;;;;;;5074489;28;20027;-57
2021/06/26 01:04:38;;;;;;;5.97;2.88;;;;;;;;;;5076794;28;20031;-57
2021/06/26 01:07:04;;;;;;;13.98;3.03;;;;;;;;;;5076055;28;20059;-57
2021/06/26 01:09:29;;;;;;;3.47;3.17;;;;;;;;;;5077414;28;20040;-57
2021/06/26 01:11:58;;;;;;;4.00;2.33;;;;;;;;;;5075548;28;20048;-56
2021/06/26 01:14:27;;;;;;;4.13;2.78;;;;;;;;;;5075128;28;20036;-58
2021/06/26 01:16:52;;;;;;;8.55;3.55;;;;;;;;;;5078077;28;20028;-57
2021/06/26 01:19:18;;;;;;;6.60;1.77;;;;;;;;;;5073176;28;20372;-57
2021/06/26 01:21:43;;;;;;;4.40;2.83;;;;;;;;;;5078957;28;20549;-58
2021/06/26 01:24:08;;;;;;;6.25;3.35;;;;;;;;;;5073870;28;20369;-57
2021/06/26 01:26:36;;;;;;;7.05;2.85;;;;;;;;;;5076313;28;20031;-57
2021/06/26 01:29:03;;;;;;;3.08;2.67;;;;;;;;;;5074931;28;20019;-57
2021/06/26 01:31:29;;;;;;;4.72;3.83;;;;;;;;;;5072621;28;20028;-58
2021/06/26 01:33:54;;;;;;;3.35;2.95;;;;;;;;;;5072912;28;20488;-58
2021/06/26 01:36:19;;;;;;;3.05;2.47;;;;;;;;;;5077589;28;20587;-58
2021/06/26 01:38:52;;;;;;;3.08;2.13;;;;;;;;;;5075262;28;20028;-57
2021/06/26 01:41:17;;;;;;;5.25;3.15;;;;;;;;;;5075054;28;20029;-57
2021/06/26 01:43:42;;;;;;;3.78;2.80;;;;;;;;;;5074505;28;20735;-57
2021/06/26 01:46:08;;;;;;;4.03;2.17;;;;;;;;;;5075084;28;20028;-57
2021/06/26 01:48:33;;;;;;;2.97;1.85;;;;;;;;;;5072986;28;20039;-58
2021/06/26 01:50:58;;;;;;;7.15;2.80;;;;;;;;;;5077140;28;20566;-57
2021/06/26 01:53:23;;;;;;;7.10;3.30;;;;;;;;;;5073668;28;20130;-58
2021/06/26 01:55:51;;;;;;;6.78;2.38;;;;;;;;;;5074515;28;20064;-57
2021/06/26 01:58:17;;;;;;;4.75;2.28;;;;;;;;;;5078161;28;20031;-58
2021/06/26 02:00:42;;;;;;;3.42;2.42;;;;;;;;;;5071596;28;20662;-57
2021/06/26 02:03:07;;;;;;;30.23;3.08;;;;;;;;;;5071343;28;20544;-57
2021/06/26 02:05:33;;;;;;;7.13;2.35;;;;;;;;;;5075891;28;20098;-57
2021/06/26 02:08:01;;;;;;;10.05;2.78;;;;;;;;;;5077151;28;20664;-58
2021/06/26 02:10:26;;;;;;;4.13;2.20;;;;;;;;;;5069831;28;20028;-57
2021/06/26 02:12:51;;;;;;;4.70;2.88;;;;;;;;;;5072198;28;20012;-57
2021/06/26 02:15:17;;;;;;;7.95;2.55;;;;;;;;;;5073684;28;20543;-57
2021/06/26 02:17:42;;;;;;;3.83;2.35;;;;;;;;;;5072817;28;20036;-58
2021/06/26 02:20:08;;;;;;;6.55;3.92;;;;;;;;;;5073786;28;20081;-57
2021/06/26 02:22:33;;;;;;;4.00;3.47;;;;;;;;;;5073372;28;20625;-57
2021/06/26 02:25:03;;;;;;;3.13;2.10;;;;;;;;;;5071325;28;20024;-57
2021/06/26 02:27:28;;;;;;;5.05;2.42;;;;;;;;;;5071450;28;20601;-57
2021/06/26 02:29:53;;;;;;;3.78;1.88;;;;;;;;;;5072575;28;20017;-57
2021/06/26 02:32:19;;;;;;;3.05;2.20;;;;;;;;;;5073324;28;20032;-57
2021/06/26 02:34:44;;;;;;;3.33;1.83;;;;;;;;;;5069623;28;20020;-57
2021/06/26 02:37:09;;;;;;;8.20;2.47;;;;;;;;;;5068691;28;20450;-57
2021/06/26 02:39:34;;;;;;;2.83;1.25;;;;;;;;;;5074120;28;20035;-57
2021/06/26 02:42:00;;;;;;;4.95;2.83;;;;;;;;;;5073441;28;20020;-58
2021/06/26 02:44:25;;;;;;;5.93;1.52;;;;;;;;;;5074145;28;20085;-57
2021/06/26 02:46:50;;;;;;;3.60;2.25;;;;;;;;;;5072985;28;20029;-57
2021/06/26 02:49:16;;;;;;;4.50;1.92;;;;;;;;;;5073063;28;20105;-57
2021/06/26 02:51:42;;;;;;;5.57;2.47;;;;;;;;;;5073954;28;20074;-57
2021/06/26 02:54:07;;;;;;;9.27;2.63;;;;;;;;;;5072052;28;20414;-57
2021/06/26 02:56:32;;;;;;;6.28;3.10;;;;;;;;;;5070214;28;20028;-57
2021/06/26 02:58:58;;;;;;;6.53;3.75;;;;;;;;;;5071714;28;20654;-57
2021/06/26 03:01:23;;;;;;;4.85;2.67;;;;;;;;;;5072507;28;20441;-57
2021/06/26 03:03:48;;;;;;;3.92;2.88;;;;;;;;;;5074109;28;20336;-57
2021/06/26 03:06:13;;;;;;;7.72;2.80;;;;;;;;;;5070975;28;20113;-57
2021/06/26 03:08:39;;;;;;;4.50;2.97;;;;;;;;;;5026249;28;1317628;-57
2021/06/26 03:11:04;;;;;;;3.85;2.58;;;;;;;;;;5075085;28;20032;-57
2021/06/26 03:13:29;;;;;;;6.65;2.75;;;;;;;;;;5071331;28;20062;-56
2021/06/26 03:15:55;;;;;;;4.40;2.85;;;;;;;;;;5071229;28;20794;-57
2021/06/26 03:18:20;;;;;;;3.63;2.67;;;;;;;;;;5071643;28;20035;-57
2021/06/26 03:20:45;;;;;;;4.10;2.05;;;;;;;;;;5074652;28;20026;-57
2021/06/26 03:23:11;;;;;;;7.30;3.00;;;;;;;;;;5073024;28;20029;-57
2021/06/26 03:25:36;;;;;;;5.05;2.83;;;;;;;;;;5071998;28;20169;-57
2021/06/26 03:28:02;;;;;;;6.25;3.25;;;;;;;;;;5072501;28;20467;-57
2021/06/26 03:30:28;;;;;;;2.33;1.65;;;;;;;;;;5072659;28;20028;-57
2021/06/26 03:32:53;;;;;;;4.63;1.98;;;;;;;;;;5073074;28;20059;-57
2021/06/26 03:35:18;;;;;;;8.38;2.60;;;;;;;;;;5074585;28;20025;-57
2021/06/26 03:37:44;;;;;;;7.55;3.65;;;;;;;;;;5074387;28;20024;-57
2021/06/26 03:40:09;;;;;;;3.15;2.35;;;;;;;;;;5072050;28;20443;-57
2021/06/26 03:42:35;;;;;;;4.05;2.17;;;;;;;;;;5070926;28;20475;-57
2021/06/26 03:45:00;;;;;;;5.38;2.63;;;;;;;;;;5070979;28;20027;-57
2021/06/26 03:47:26;;;;;;;5.20;2.90;;;;;;;;;;5071472;28;20032;-58
2021/06/26 03:49:51;;;;;;;5.78;3.60;;;;;;;;;;5070924;28;20031;-57
2021/06/26 03:52:17;;;;;;;5.75;3.00;;;;;;;;;;5070442;28;20414;-57
2021/06/26 03:54:42;;;;;;;14.93;3.70;;;;;;;;;;5074690;28;20024;-57
2021/06/26 03:57:08;;;;;;;3.47;1.98;;;;;;;;;;5074086;28;20063;-58
2021/06/26 03:59:33;;;;;;;2.72;1.65;;;;;;;;;;5071629;28;20333;-57
2021/06/26 04:01:58;;;;;;;3.72;3.17;;;;;;;;;;5073527;28;20083;-57
2021/06/26 04:04:24;;;;;;;2.60;2.17;;;;;;;;;;5073257;28;20025;-57
2021/06/26 04:06:49;;;;;;;9.95;2.58;;;;;;;;;;5080881;28;20031;-57
2021/06/26 04:09:15;;;;;;;8.55;2.55;;;;;;;;;;5073198;28;20012;-57
2021/06/26 04:11:40;;;;;;;5.72;3.00;;;;;;;;;;5075371;28;20027;-57
2021/06/26 04:14:05;;;;;;;4.60;3.17;;;;;;;;;;5074967;28;20023;-57
2021/06/26 04:16:31;;;;;;;1.92;1.50;;;;;;;;;;5078574;28;20722;-57
2021/06/26 04:18:57;;;;;;;4.10;2.22;;;;;;;;;;5076494;28;20506;-57
2021/06/26 04:21:22;;;;;;;3.17;2.13;;;;;;;;;;5077976;28;20032;-57
2021/06/26 04:23:47;;;;;;;11.40;2.33;;;;;;;;;;5081624;28;20040;-57
2021/06/26 04:26:13;;;;;;;2.38;1.98;;;;;;;;;;5079571;28;20028;-57
2021/06/26 04:28:38;;;;;;;5.60;2.05;;;;;;;;;;5080809;28;20426;-57
2021/06/26 04:31:03;;;;;;;2.67;2.20;;;;;;;;;;5075987;28;20024;-57
2021/06/26 04:33:29;;;;;;;2.40;1.98;;;;;;;;;;5078329;28;20107;-57
2021/06/26 04:35:54;;;;;;;5.20;3.95;;;;;;;;;;5078450;28;20020;-57
2021/06/26 04:38:23;;;;;;;2.60;2.17;;;;;;;;;;5076773;28;20028;-57
2021/06/26 04:40:49;;;;;;;4.32;2.65;;;;;;;;;;5076648;28;20082;-57
2021/06/26 04:43:14;;;;;;;7.95;3.20;;;;;;;;;;5073327;28;20051;-57
2021/06/26 04:45:42;;;;;;;3.40;2.45;;;;;;;;;;5075410;28;20016;-57
2021/06/26 04:48:07;;;;;;;3.67;2.97;;;;;;;;;;5075900;28;20016;-57
2021/06/26 04:50:33;;;;;;;7.38;2.58;;;;;;;;;;5078785;28;20027;-57
2021/06/26 04:52:58;;;;;;;6.03;2.33;;;;;;;;;;5069494;28;20035;-57
2021/06/26 04:55:24;;;;;;;2.35;2.03;;;;;;;;;;5073622;28;20691;-57
2021/06/26 04:57:49;;;;;;;6.53;3.80;;;;;;;;;;5078185;28;20023;-58
2021/06/26 05:00:15;;;;;;;2.67;2.15;;;;;;;;;;5074300;28;20021;-57
2021/06/26 05:02:40;;;;;;;1.83;1.38;;;;;;;;;;5076958;28;20017;-58
2021/06/26 05:05:05;;;;;;;3.47;2.60;;;;;;;;;;5073624;28;20430;-57
2021/06/26 05:07:31;;;;;;;3.95;2.30;;;;;;;;;;5076796;28;20526;-58
2021/06/26 05:09:56;;;;;;;2.90;2.00;;;;;;;;;;5073564;28;20471;-57
2021/06/26 05:12:21;;;;;;;3.65;2.80;;;;;;;;;;5075691;28;20020;-57
2021/06/26 05:14:47;;;;;;;3.55;2.25;;;;;;;;;;5074537;28;20164;-58
2021/06/26 05:17:12;;;;;;;5.07;2.28;;;;;;;;;;5075361;28;20487;-57
2021/06/26 05:19:37;;;;;;;4.70;2.63;;;;;;;;;;5075770;28;20020;-57
2021/06/26 05:22:03;;;;;;;7.25;3.03;;;;;;;;;;5073595;28;20446;-57
2021/06/26 05:24:28;;;;;;;6.60;3.17;;;;;;;;;;5077691;28;20025;-57
2021/06/26 05:26:54;;;;;;;6.25;3.80;;;;;;;;;;5074194;28;20142;-57
2021/06/26 05:29:19;;;;;;;6.30;3.78;;;;;;;;;;5077546;28;20028;-57
2021/06/26 05:31:44;;;;;;;5.40;3.03;;;;;;;;;;5079410;28;20016;-57
2021/06/26 05:34:09;;;;;;;10.23;4.43;;;;;;;;;;5073673;28;20487;-57
2021/06/26 05:36:35;;;;;;;5.38;3.35;;;;;;;;;;5071940;28;20022;-58
2021/06/26 05:39:01;;;;;;;6.07;4.18;;;;;;;;;;5075560;28;20032;-56
2021/06/26 05:41:27;;;;;;;3.88;2.40;;;;;;;;;;5073732;28;20125;-56
2021/06/26 05:43:52;;;;;;;8.18;2.92;;;;;;;;;;5075664;28;20049;-57
2021/06/26 05:46:17;;;;;;;5.40;3.58;;;;;;;;;;5074955;28;20024;-58
2021/06/26 05:48:43;;;;;;;7.95;4.63;;;;;;;;;;5074676;28;20111;-57
2021/06/26 05:51:08;;;;;;;7.78;3.63;;;;;;;;;;5073486;28;20578;-58
2021/06/26 05:53:33;;;;;;;13.50;3.42;;;;;;;;;;5077265;28;20023;-57
2021/06/26 05:55:59;;;;;;;3.95;3.15;;;;;;;;;;5073134;28;20704;-57
2021/06/26 05:58:29;;;;;;;4.35;2.70;;;;;;;;;;5076429;28;20034;-57
2021/06/26 06:00:54;;;;;;;4.03;3.22;;;;;;;;;;5076902;28;20024;-57
2021/06/26 06:03:20;;;;;;;7.35;3.65;;;;;;;;;;5069854;28;20037;-62
2021/06/26 06:05:46;;;;;;;2.97;2.60;;;;;;;;;;5073208;28;20452;-50
2021/06/26 06:08:12;;;;;;;4.00;3.03;;;;;;;;;;5074163;28;20052;-50
2021/06/26 06:10:37;;;;;;;3.90;3.47;;;;;;;;;;5074377;28;20020;-46
2021/06/26 06:13:03;;;;;;;3.95;3.17;;;;;;;;;;5073739;28;20857;-50
2021/06/26 06:15:28;;;;;;;3.65;2.97;;;;;;;;;;5071906;28;20031;-49
2021/06/26 06:17:53;;;;;;;7.43;2.85;;;;;;;;;;5074006;28;20111;-45
2021/06/26 06:20:18;;;;;;;5.97;3.13;;;;;;;;;;5074837;28;20017;-47
2021/06/26 06:22:44;;;;;;;4.38;2.22;;;;;;;;;;5075433;28;20078;-47
2021/06/26 06:25:11;;;;;;;2.97;2.30;;;;;;;;;;5076845;28;20472;-47
2021/06/26 06:27:40;;;;;;;3.83;2.70;;;;;;;;;;5074401;28;20086;-44
2021/06/26 06:30:05;;;;;;;6.60;3.63;;;;;;;;;;5069538;28;20093;-47
2021/06/26 06:32:31;;;;;;;4.72;3.20;;;;;;;;;;5072959;28;20033;-48
2021/06/26 06:34:56;;;;;;;12.02;3.17;;;;;;;;;;5076289;28;20454;-47
2021/06/26 06:37:22;;;;;;;6.20;2.67;;;;;;;;;;5074328;28;20027;-47
2021/06/26 06:39:47;;;;;;;7.57;3.88;;;;;;;;;;5073289;28;20300;-45
2021/06/26 06:42:13;;;;;;;7.13;5.93;;;;;;;;;;5072715;28;20447;-47
2021/06/26 06:44:38;;;;;;;12.95;5.78;;;;;;;;;;5071115;28;20021;-47
2021/06/26 06:47:03;;;;;;;4.70;2.70;;;;;;;;;;5069908;28;20048;-45
2021/06/26 06:49:29;;;;;;;4.85;3.10;;;;;;;;;;5073259;28;20697;-45
2021/06/26 06:51:54;;;;;;;7.30;3.10;;;;;;;;;;5073054;28;20032;-46
2021/06/26 06:54:19;;;;;;;9.30;2.38;;;;;;;;;;5075541;28;20074;-45
2021/06/26 06:56:44;;;;;;;2.25;1.73;;;;;;;;;;5073122;28;20023;-47
2021/06/26 06:59:10;;;;;;;2.40;2.00;;;;;;;;;;5073475;28;20077;-47
2021/06/26 07:01:35;;;;;;;2.45;1.75;;;;;;;;;;5074761;28;20024;-47
2021/06/26 07:04:00;;;;;;;4.60;3.10;;;;;;;;;;5074487;28;20027;-46
2021/06/26 07:06:26;;;;;;;2.13;1.77;;;;;;;;;;5072697;28;20139;-51
2021/06/26 07:08:51;;;;;;;4.13;2.05;;;;;;;;;;5075651;28;20117;-46
2021/06/26 07:11:16;;;;;;;5.25;2.83;;;;;;;;;;5073453;28;20495;-47
2021/06/26 07:13:42;;;;;;;5.85;1.55;;;;;;;;;;5075348;28;20050;-45
2021/06/26 07:16:07;;;;;;;7.15;2.13;;;;;;;;;;5072214;28;20103;-47
2021/06/26 07:18:32;;;;;;;14.98;2.47;;;;;;;;;;5075289;28;20076;-46
2021/06/26 07:20:57;;;;;;;3.65;1.92;;;;;;;;;;5071381;28;20166;-47
2021/06/26 07:23:23;;;;;;;4.85;1.25;;;;;;;;;;5075397;28;20811;-45
2021/06/26 07:25:48;;;;;;;7.38;2.10;;;;;;;;;;5074414;28;20671;-45
2021/06/26 07:28:13;;;;;;;3.85;2.50;;;;;;;;;;5076832;28;20505;-45
2021/06/26 07:30:39;;;;;;;3.33;1.73;;;;;;;;;;5074129;28;20032;-66
2021/06/26 07:33:04;;;;;;;6.13;2.88;;;;;;;;;;5068144;28;20024;-65
2021/06/26 07:35:29;;;;;;;5.90;2.53;;;;;;;;;;5075311;28;20040;-65
2021/06/26 07:37:55;;;;;;;11.70;10.27;;;;;;;;;;5075184;28;20027;-65
2021/06/26 07:40:20;;;;;;;3.65;2.85;;;;;;;;;;5074746;28;20584;-65
2021/06/26 07:42:45;;;;;;;4.18;2.67;;;;;;;;;;5077229;28;20053;-64
2021/06/26 07:45:11;;;;;;;5.10;2.80;;;;;;;;;;5077011;28;20548;-65
2021/06/26 07:47:36;;;;;;;4.03;2.67;;;;;;;;;;5079261;28;20115;-65
2021/06/26 07:50:03;;;;;;;2.63;2.08;;;;;;;;;;5076557;28;20024;-52
2021/06/26 07:52:28;;;;;;;6.57;3.33;;;;;;;;;;5074999;28;20094;-51
2021/06/26 07:54:53;;;;;;;3.53;1.67;;;;;;;;;;5073557;28;20021;-52
2021/06/26 07:57:19;;;;;;;6.00;1.85;;;;;;;;;;5075279;28;20102;-65
2021/06/26 07:59:44;;;;;;;3.65;2.38;;;;;;;;;;5079391;28;20031;-66
2021/06/26 08:02:09;;;;;;;5.63;2.92;;;;;;;;;;5076360;28;20026;-65
2021/06/26 08:04:35;;;;;;;8.20;2.38;;;;;;;;;;5075611;28;20134;-65
2021/06/26 08:07:00;;;;;;;5.68;2.72;;;;;;;;;;5079224;28;20016;-65
2021/06/26 08:09:25;;;;;;;6.07;1.95;;;;;;;;;;5081067;28;20028;-65
2021/06/26 08:11:51;;;;;;;5.68;3.50;;;;;;;;;;5078283;28;20012;-65
2021/06/26 08:14:16;;;;;;;6.82;2.55;;;;;;;;;;5078673;28;20783;-65
2021/06/26 08:16:41;;;;;;;3.80;2.17;;;;;;;;;;5079039;28;20069;-65
2021/06/26 08:19:07;;;;;;;4.80;2.33;;;;;;;;;;5079290;28;20107;-66
2021/06/26 08:21:32;;;;;;;3.78;2.03;;;;;;;;;;5075423;28;20027;-66
2021/06/26 08:23:58;;;;;;;2.20;1.30;;;;;;;;;;5076118;28;20495;-65
2021/06/26 08:26:23;;;;;;;3.13;1.92;;;;;;;;;;5076232;28;20066;-65
2021/06/26 08:28:48;;;;;;;2.58;1.90;;;;;;;;;;5072734;28;20139;-65
2021/06/26 08:31:14;;;;;;;3.67;2.03;;;;;;;;;;5079771;28;20161;-65
2021/06/26 08:33:39;;;;;;;2.75;1.52;;;;;;;;;;5075440;28;20485;-66
2021/06/26 08:36:05;;;;;;;3.90;2.67;;;;;;;;;;5076125;28;20505;-62
2021/06/26 08:38:30;;;;;;;3.05;1.77;;;;;;;;;;5073398;28;20082;-68
2021/06/26 08:40:55;;;;;;;2.90;1.67;;;;;;;;;;5074254;28;20031;-69
2021/06/26 08:43:21;;;;;;;2.33;1.17;;;;;;;;;;5076148;28;20024;-63
2021/06/26 08:45:47;;;;;;;4.72;1.98;;;;;;;;;;5078671;28;20785;-62
2021/06/26 08:48:12;;;;;;;1.98;1.08;;;;;;;;;;5077527;28;20035;-66
2021/06/26 08:50:38;;;;;;;2.88;1.42;;;;;;;;;;5077952;28;20024;-66
2021/06/26 08:53:03;;;;;;;3.58;1.08;;;;;;;;;;5075978;28;20137;-66
2021/06/26 08:55:28;;;;;;;10.45;2.00;;;;;;;;;;5077571;28;20027;-66
2021/06/26 08:57:54;;;;;;;2.50;1.33;;;;;;;;;;5075715;28;20400;-65
2021/06/26 09:00:21;;;;;;;4.93;1.80;;;;;;;;;;5075889;28;20742;-66
2021/06/26 09:02:46;;;;;;;1.40;0.70;;;;;;;;;;5076345;28;20065;-65
2021/06/26 09:05:22;;;;;;;4.45;2.50;;;;;;;;;;5072785;28;20091;-66
2021/06/26 09:07:47;;;;;;;3.50;2.00;;;;;;;;;;5077275;28;20055;-65
2021/06/26 09:10:15;;;;;;;4.70;1.15;;;;;;;;;;5074559;28;20022;-65
2021/06/26 09:12:41;;;;;;;1.92;1.23;;;;;;;;;;5075221;28;20023;-65
2021/06/26 09:15:07;;;;;;;2.38;1.27;;;;;;;;;;5074619;28;20016;-66
2021/06/26 09:17:33;;;;;;;5.57;2.45;;;;;;;;;;5073011;28;20107;-65
2021/06/26 09:20:06;;;;;;;13.38;11.63;;;;;;;;;;5075177;28;20023;-65
2021/06/26 09:22:35;;;;;;;2.83;1.35;;;;;;;;;;5076264;28;20027;-65
2021/06/26 09:25:01;;;;;;;2.17;1.70;;;;;;;;;;5075118;28;20166;-65
2021/06/26 09:27:31;;;;;;;1.60;1.10;;;;;;;;;;5076151;28;20119;-65
2021/06/26 09:29:57;;;;;;;3.50;1.38;;;;;;;;;;5075689;28;20032;-65
2021/06/26 09:32:24;;;;;;;7.93;1.42;;;;;;;;;;5073885;28;20042;-65
2021/06/26 09:34:50;;;;;;;3.28;1.33;;;;;;;;;;5077126;28;20031;-65
2021/06/26 09:37:23;;;;;;;1.20;0.85;;;;;;;;;;5072561;28;20036;-65
2021/06/26 09:39:50;;;;;;;5.43;1.67;;;;;;;;;;5078514;28;20075;-66
2021/06/26 09:42:18;;;;;;;3.40;1.67;;;;;;;;;;5073387;28;20028;-65
2021/06/26 09:44:50;;;;;;;2.85;1.27;;;;;;;;;;5070490;28;20028;-65
2021/06/26 09:47:27;;;;;;;3.10;1.30;;;;;;;;;;5074731;28;20033;-65
2021/06/26 09:49:53;;;;;;;2.40;1.45;;;;;;;;;;5075303;28;20017;-65
2021/06/26 09:52:18;;;;;;;3.20;1.10;;;;;;;;;;5075176;28;20049;-67
2021/06/26 09:54:43;;;;;;;2.10;1.90;;;;;;;;;;5071311;28;20024;-64
2021/06/26 09:57:09;;;;;;;14.90;2.22;;;;;;;;;;5075560;28;20031;-66
2021/06/26 09:59:34;;;;;;;5.95;1.30;;;;;;;;;;5073949;28;20161;-65
2021/06/26 10:02:00;;;;;;;2.20;1.23;;;;;;;;;;5075280;28;20028;-65
2021/06/26 10:04:26;;;;;;;1.63;1.00;;;;;;;;;;5068621;28;20020;-65
2021/06/26 10:06:52;;;;;;;1.75;0.93;;;;;;;;;;5074776;28;20030;-65
2021/06/26 10:09:18;;;;;;;2.10;0.80;;;;;;;;;;5074529;28;20020;-64
2021/06/26 10:11:44;;;;;;;2.63;1.55;;;;;;;;;;5070891;28;20016;-65
2021/06/26 10:14:10;;;;;;;1.45;1.15;;;;;;;;;;5076817;28;20423;-65
2021/06/26 10:16:36;;;;;;;3.95;1.60;;;;;;;;;;5068424;28;20029;-65
2021/06/26 10:19:03;;;;;;;1.23;0.75;;;;;;;;;;5070472;28;20020;-65
2021/06/26 10:21:29;;;;;;;8.18;1.67;;;;;;;;;;5073446;28;20061;-65
2021/06/26 10:23:56;;;;;;;8.68;1.52;;;;;;;;;;5074975;28;20598;-65
2021/06/26 10:26:24;;;;;;;2.03;1.48;;;;;;;;;;5070670;28;20029;-65
2021/06/26 10:28:51;;;;;;;4.35;2.63;;;;;;;;;;5073808;28;20491;-66
2021/06/26 10:31:26;;;;;;;3.15;1.15;;;;;;;;;;5074574;28;20024;-65
2021/06/26 10:33:52;;;;;;;4.00;2.17;;;;;;;;;;5071723;28;20605;-65
2021/06/26 10:36:17;;;;;;;3.25;1.67;;;;;;;;;;5073628;28;20017;-65
2021/06/26 10:38:43;;;;;;;3.95;2.08;;;;;;;;;;5072334;28;20046;-65
2021/06/26 10:41:19;;;;;;;11.00;1.73;;;;;;;;;;5074530;28;20601;-65
2021/06/26 10:43:53;;;;;;;8.02;1.63;;;;;;;;;;5074090;28;20121;-67
2021/06/26 10:46:19;;;;;;;3.13;1.08;;;;;;;;;;5073915;28;20062;-65
2021/06/26 10:49:06;;;;;;;3.28;1.30;;;;;;;;;;5074739;28;20046;-59
2021/06/26 10:51:31;;;;;;;5.15;1.63;;;;;;;;;;5076696;28;20012;-60
2021/06/26 10:54:07;;;;;;;3.10;1.17;;;;;;;;;;5073665;28;20437;-64
2021/06/26 10:56:32;;;;;;;7.55;1.00;;;;;;;;;;5069109;28;20459;-63
2021/06/26 10:59:07;;;;;;;1.65;1.27;;;;;;;;;;5073895;28;20056;-63
2021/06/26 11:01:32;;;;;;;2.25;1.42;;;;;;;;;;5073793;28;20432;-63
2021/06/26 11:04:09;;;;;;;2.47;1.23;;;;;;;;;;5075318;28;20027;-62
2021/06/26 11:06:35;;;;;;;1.02;0.65;;;;;;;;;;5072436;28;20043;-63
2021/06/26 11:09:07;;;;;;;2.10;0.90;;;;;;;;;;5071766;28;20048;-63
2021/06/26 11:11:37;;;;;;;1.92;1.52;;;;;;;;;;5072171;28;20515;-61
2021/06/26 11:14:12;;;;;;;2.42;1.02;;;;;;;;;;5073625;28;20799;-62
2021/06/26 11:16:38;;;;;;;0.80;0.68;;;;;;;;;;5078634;28;20278;-62
2021/06/26 11:19:03;;;;;;;1.27;0.95;;;;;;;;;;5077181;28;20472;-64
2021/06/26 11:21:28;;;;;;;1.85;0.90;;;;;;;;;;5074546;28;20032;-62
2021/06/26 11:23:54;;;;;;;2.97;1.73;;;;;;;;;;5075312;28;20107;-63
2021/06/26 11:26:20;;;;;;;1.73;0.90;;;;;;;;;;5077088;28;20074;-62
2021/06/26 11:28:45;;;;;;;2.85;1.77;;;;;;;;;;5078221;28;20056;-62
2021/06/26 11:31:11;;;;;;;2.35;1.27;;;;;;;;;;5078859;28;20499;-62
2021/06/26 11:33:39;;;;;;;1.65;1.23;;;;;;;;;;5074372;28;20028;-62
2021/06/26 11:36:08;;;;;;;2.38;1.80;;;;;;;;;;5074465;28;20107;-62
2021/06/26 11:38:33;;;;;;;4.70;0.98;;;;;;;;;;5079443;28;20029;-62
2021/06/26 11:41:03;;;;;;;1.88;1.38;;;;;;;;;;5073571;28;20383;-62
2021/06/26 11:43:28;;;;;;;1.20;0.82;;;;;;;;;;5075380;28;20063;-62
2021/06/26 11:45:53;;;;;;;1.92;0.60;;;;;;;;;;5076445;28;20191;-62
2021/06/26 11:48:19;;;;;;;1.13;0.70;;;;;;;;;;5071453;28;20052;-62
2021/06/26 11:50:49;;;;;;;2.47;1.65;;;;;;;;;;5077717;28;20032;-63
2021/06/26 11:53:15;;;;;;;5.47;1.17;;;;;;;;;;5077098;28;20390;-63
2021/06/26 11:55:40;;;;;;;1.50;0.63;;;;;;;;;;5077052;28;20089;-63
2021/06/26 11:58:05;;;;;;;2.70;1.85;;;;;;;;;;5076255;28;20066;-63
2021/06/26 12:00:31;;;;;;;4.00;1.35;;;;;;;;;;5075762;28;20501;-63
2021/06/26 12:02:56;;;;;;;1.75;0.82;;;;;;;;;;5079288;28;20026;-63
2021/06/26 12:05:22;;;;;;;4.05;1.75;;;;;;;;;;5074480;28;20090;-63
2021/06/26 12:07:48;;;;;;;0.57;0.50;;;;;;;;;;5073946;28;20044;-63
2021/06/26 12:10:14;;;;;;;5.38;1.75;;;;;;;;;;5076712;28;20238;-63
2021/06/26 12:12:40;;;;;;;2.00;0.63;;;;;;;;;;5070761;28;20144;-63
2021/06/26 12:15:09;;;;;;;2.03;0.60;;;;;;;;;;5078974;28;20016;-59
2021/06/26 12:17:35;;;;;;;2.45;1.73;;;;;;;;;;5078066;28;20027;-62
2021/06/26 12:20:01;;;;;;;1.05;0.60;;;;;;;;;;5075689;28;20037;-61
2021/06/26 12:22:28;;;;;;;0.68;0.47;;;;;;;;;;5077588;28;20107;-62
2021/06/26 12:25:03;;;;;;;2.05;1.20;;;;;;;;;;5075642;28;20489;-62
2021/06/26 12:27:29;;;;;;;1.00;0.65;;;;;;;;;;5075943;28;20467;-62
2021/06/26 12:30:06;;;;;;;2.15;0.93;;;;;;;;;;5076777;28;20058;-62
2021/06/26 12:32:32;;;;;;;4.25;1.40;;;;;;;;;;5076988;28;20024;-62
2021/06/26 12:34:58;;;;;;;2.03;1.27;;;;;;;;;;5067884;28;20103;-62
2021/06/26 12:37:27;;;;;;;0.55;0.45;;;;;;;;;;5073485;28;20038;-60
2021/06/26 12:39:59;;;;;;;1.95;1.13;;;;;;;;;;5076114;28;20068;-62
2021/06/26 12:42:25;;;;;;;3.28;1.10;;;;;;;;;;5073666;28;20024;-62
2021/06/26 12:44:54;;;;;;;0.77;0.63;;;;;;;;;;5077724;28;20336;-62
2021/06/26 12:47:23;;;;;;;6.63;1.48;;;;;;;;;;5072833;28;20487;-62
2021/06/26 12:49:58;;;;;;;3.70;0.68;;;;;;;;;;5073371;28;20028;-62
2021/06/26 12:52:23;;;;;;;1.90;1.20;;;;;;;;;;5074210;28;20079;-61
2021/06/26 12:54:53;;;;;;;5.97;1.60;;;;;;;;;;5072212;28;20480;-62
2021/06/26 12:57:19;;;;;;;1.25;0.70;;;;;;;;;;5075974;28;20020;-62
2021/06/26 12:59:44;;;;;;;7.13;2.03;;;;;;;;;;5073635;28;20040;-62
2021/06/26 13:02:10;;;;;;;1.48;1.08;;;;;;;;;;5073123;28;20681;-63
2021/06/26 13:04:52;;;;;;;1.10;0.70;;;;;;;;;;5075896;28;20066;-62
2021/06/26 13:07:21;;;;;;;2.83;0.95;;;;;;;;;;5075193;28;20451;-62
2021/06/26 13:09:47;;;;;;;0.73;0.50;;;;;;;;;;5281439;22;20073;-45
2021/06/26 13:12:20;;;;;;;1.25;0.57;;;;;;;;;;5054632;28;20025;-49
2021/06/26 13:14:47;;;;;;;4.88;1.30;;;;;;;;;;5052332;28;20025;-45
2021/06/26 13:17:13;;;;;;;1.55;1.10;;;;;;;;;;5053945;28;20048;-48
2021/06/26 13:19:39;;;;;;;3.40;0.75;;;;;;;;;;5038715;28;20808;-43
2021/06/26 13:22:04;;;;;;;1.42;1.05;;;;;;;;;;5052430;28;20101;-47
2021/06/26 13:24:30;;;;;;;2.10;1.48;;;;;;;;;;5052569;28;20028;-47
2021/06/26 13:26:55;;;;;;;11.18;1.00;;;;;;;;;;5054565;28;20442;-47
2021/06/26 13:29:21;;;;;;;0.73;0.50;;;;;;;;;;5051859;28;20035;-46
2021/06/26 13:31:46;;;;;;;1.60;0.80;;;;;;;;;;5050697;28;20075;-45
2021/06/26 13:34:11;;;;;;;2.60;0.90;;;;;;;;;;5051988;28;20040;-45
2021/06/26 13:36:37;;;;;;;1.23;0.90;;;;;;;;;;5048262;28;20055;-44
2021/06/26 13:39:03;;;;;;;2.95;0.88;;;;;;;;;;5047031;28;20099;-46
2021/06/26 13:41:29;;;;;;;1.98;0.47;;;;;;;;;;5048918;28;20020;-44
2021/06/26 13:43:54;;;;;;;3.00;1.33;;;;;;;;;;5049754;28;20755;-45
2021/06/26 13:46:21;;;;;;;1.38;0.70;;;;;;;;;;5050634;28;20075;-43
2021/06/26 13:48:46;;;;;;;1.33;0.82;;;;;;;;;;5051869;28;20078;-44
2021/06/26 13:51:12;;;;;;;3.33;1.58;;;;;;;;;;5048731;28;20675;-46
2021/06/26 13:53:37;;;;;;;2.25;1.25;;;;;;;;;;5051403;28;20016;-48
2021/06/26 13:56:02;;;;;;;3.50;0.82;;;;;;;;;;5052282;28;20034;-44
2021/06/26 13:58:28;;;;;;;2.05;1.02;;;;;;;;;;5053970;28;20035;-48
2021/06/26 14:00:53;;;;;;;2.67;1.25;;;;;;;;;;5050381;28;20068;-45
2021/06/26 14:03:19;;;;;;;2.67;1.58;;;;;;;;;;5052786;28;20059;-46
2021/06/26 14:05:44;;;;;;;2.75;1.55;;;;;;;;;;5055544;28;20063;-45
2021/06/26 14:08:10;;;;;;;6.00;1.35;;;;;;;;;;5051760;28;20024;-44
2021/06/26 14:10:36;;;;;;;1.30;1.08;;;;;;;;;;5051486;28;20436;-44
2021/06/26 14:13:01;;;;;;;1.88;0.98;;;;;;;;;;5052978;28;20024;-46
2021/06/26 14:15:26;;;;;;;1.27;0.77;;;;;;;;;;5053373;28;20659;-47
2021/06/26 14:17:52;;;;;;;2.67;1.48;;;;;;;;;;5053999;28;20104;-45
2021/06/26 14:20:18;;;;;;;3.47;1.23;;;;;;;;;;5053118;28;20032;-47
2021/06/26 14:22:43;;;;;;;4.88;1.45;;;;;;;;;;5049541;28;20140;-43
2021/06/26 14:25:09;;;;;;;2.92;1.63;;;;;;;;;;5055194;28;20440;-46
2021/06/26 14:27:35;;;;;;;1.90;0.93;;;;;;;;;;5053178;28;20554;-46
2021/06/26 14:30:01;;;;;;;2.65;1.38;;;;;;;;;;5053025;28;20096;-45
2021/06/26 14:32:26;;;;;;;3.65;1.02;;;;;;;;;;5052215;28;20074;-47
2021/06/26 14:34:51;;;;;;;4.53;1.02;;;;;;;;;;5051153;28;20563;-43
2021/06/26 14:37:17;;;;;;;7.00;1.55;;;;;;;;;;5052301;28;20024;-45